Time;durP1;ratioP1;P1;durP2;ratioP2;P2;SDS_P1;SDS_P2;PMS_P1;PMS_P2;Temp;Humidity;BMP_temperature;BMP_pressure;BME280_temperature;BME280_humidity;BME280_pressure;Samples;Min_cycle;Max_cycle;Signal;HPM_P1;HPM_P2
2022/10/05 00:03:21;;;;;;;11.03;8.87;;;;;13.10;99425.00;;;;16566288;28;20199;-48
2022/10/05 00:11:25;;;;;;;10.13;8.63;;;;;12.80;99437.00;;;;16568156;28;20278;-48
2022/10/05 00:19:31;;;;;;;10.40;9.40;;;;;12.80;99443.00;;;;16575091;28;20222;-48
2022/10/05 00:27:36;;;;;;;11.63;10.47;;;;;13.30;99438.00;;;;16566936;28;20281;-48
2022/10/05 00:35:39;;;;;;;12.23;11.03;;;;;13.50;99420.00;;;;16557443;28;20221;-48
2022/10/05 00:44:11;;;;;;;10.70;9.67;;;;;13.50;99414.00;;;;16574016;28;20721;-49
2022/10/05 00:52:26;;;;;;;11.37;10.27;;;;;13.40;99417.00;;;;16568946;28;20232;-48
2022/10/05 01:00:31;;;;;;;19.20;11.23;;;;;13.40;99412.00;;;;16594113;28;20416;-49
2022/10/05 01:08:41;;;;;;;11.63;10.37;;;;;13.50;99407.00;;;;16579709;28;20227;-49
2022/10/05 01:16:49;;;;;;;10.27;9.27;;;;;13.30;99413.00;;;;16570175;28;20227;-48
2022/10/05 01:25:03;;;;;;;11.00;10.00;;;;;12.90;99407.00;;;;16598666;28;20227;-48
2022/10/05 01:33:12;;;;;;;10.93;9.67;;;;;12.90;99411.00;;;;16560058;28;20625;-48
2022/10/05 01:41:26;;;;;;;10.47;9.47;;;;;13.00;99398.00;;;;16568517;28;20207;-49
2022/10/05 01:49:37;;;;;;;10.63;9.43;;;;;12.90;99402.00;;;;16568935;28;20326;-48
2022/10/05 01:57:47;;;;;;;10.50;9.10;;;;;12.80;99403.00;;;;16574254;28;20219;-48
2022/10/05 02:05:54;;;;;;;9.70;8.70;;;;;12.70;99387.00;;;;16574019;28;20235;-48
2022/10/05 02:14:02;;;;;;;10.80;9.80;;;;;12.70;99383.00;;;;16566401;28;20309;-48
2022/10/05 02:22:10;;;;;;;9.43;8.57;;;;;12.50;99395.00;;;;16572489;28;20199;-48
2022/10/05 02:30:17;;;;;;;9.43;8.43;;;;;12.60;99380.00;;;;16575075;28;20802;-48
2022/10/05 02:38:29;;;;;;;13.40;8.67;;;;;12.40;99379.00;;;;16560429;28;20733;-49
2022/10/05 02:46:36;;;;;;;13.00;8.73;;;;;12.30;99364.00;;;;16586844;28;20312;-48
2022/10/05 02:54:48;;;;;;;8.83;7.93;;;;;12.60;99362.00;;;;16572350;28;20297;-48
2022/10/05 03:02:57;;;;;;;9.27;8.13;;;;;12.30;99378.00;;;;16562979;28;20203;-48
2022/10/05 03:11:08;;;;;;;7.43;6.47;;;;;11.00;99392.00;;;;16560356;28;20290;-48
2022/10/05 03:19:24;;;;;;;7.87;6.77;;;;;11.10;99388.00;;;;16560053;28;20227;-48
2022/10/05 03:27:35;;;;;;;9.73;8.73;;;;;11.40;99390.00;;;;16574016;28;20223;-48
2022/10/05 03:35:45;;;;;;;9.63;8.60;;;;;11.70;99374.00;;;;16560548;28;20329;-48
2022/10/05 03:44:10;;;;;;;10.30;9.40;;;;;12.20;99343.00;;;;16551487;28;20234;-48
2022/10/05 03:52:16;;;;;;;8.60;7.80;;;;;12.10;99343.00;;;;16587480;28;20223;-48
2022/10/05 04:00:23;;;;;;;9.77;8.87;;;;;12.00;99343.00;;;;16556760;28;20223;-48
2022/10/05 04:08:37;;;;;;;9.10;8.20;;;;;11.80;99338.00;;;;16562088;28;20367;-48
2022/10/05 04:16:43;;;;;;;8.27;7.43;;;;;11.70;99341.00;;;;16577529;28;20303;-48
2022/10/05 04:24:49;;;;;;;8.00;7.20;;;;;11.50;99348.00;;;;16602793;28;20382;-48
2022/10/05 04:32:56;;;;;;;9.50;8.60;;;;;11.50;99343.00;;;;16579680;28;20580;-48
2022/10/05 04:41:12;;;;;;;8.73;7.93;;;;;11.50;99346.00;;;;16575945;28;20597;-48
2022/10/05 04:49:32;;;;;;;10.20;8.77;;;;;11.20;99349.00;;;;16582617;28;20225;-48
2022/10/05 04:57:40;;;;;;;14.53;10.00;;;;;11.00;99355.00;;;;16584108;28;20223;-48
2022/10/05 05:05:58;;;;;;;14.10;11.80;;;;;11.10;99356.00;;;;16578488;28;20220;-48
2022/10/05 05:14:21;;;;;;;13.17;11.87;;;;;11.10;99371.00;;;;16589569;28;20235;-48
2022/10/05 05:22:31;;;;;;;11.37;10.30;;;;;11.20;99384.00;;;;16553303;28;20243;-48
2022/10/05 05:30:41;;;;;;;11.43;10.27;;;;;11.40;99382.00;;;;16551021;28;20246;-48
2022/10/05 05:38:51;;;;;;;11.53;10.43;;;;;11.40;99384.00;;;;16592983;28;20764;-48
2022/10/05 05:46:58;;;;;;;12.67;10.57;;;;;11.50;99384.00;;;;16582004;28;20215;-48
2022/10/05 05:55:12;;;;;;;10.10;9.17;;;;;11.70;99393.00;;;;16575571;28;20664;-48
2022/10/05 06:03:19;;;;;;;9.67;8.67;;;;;11.80;99394.00;;;;16601003;28;20279;-48
2022/10/05 06:11:25;;;;;;;9.60;8.70;;;;;11.70;99406.00;;;;16576740;28;20629;-49
2022/10/05 06:19:29;;;;;;;11.73;9.13;;;;;11.80;99415.00;;;;16595488;28;20606;-48
2022/10/05 06:27:37;;;;;;;12.47;11.17;;;;;11.50;99425.00;;;;16573516;28;20322;-48
2022/10/05 06:35:53;;;;;;;10.70;9.63;;;;;11.60;99438.00;;;;16593023;28;20238;-48
2022/10/05 06:44:00;;;;;;;10.63;9.20;;;;;11.70;99431.00;;;;16554197;28;20360;-48
2022/10/05 06:52:29;;;;;;;9.90;8.60;;;;;12.40;99440.00;;;;16571502;28;20224;-48
2022/10/05 07:00:39;;;;;;;12.23;9.70;;;;;12.20;99449.00;;;;16572125;28;20233;-48
2022/10/05 07:08:56;;;;;;;10.10;8.37;;;;;12.50;99450.00;;;;16564063;28;20325;-48
2022/10/05 07:17:14;;;;;;;9.93;8.00;;;;;12.60;99450.00;;;;16551563;28;20213;-48
2022/10/05 07:25:20;;;;;;;8.67;7.87;;;;;12.90;99447.00;;;;16540407;28;20742;-48
2022/10/05 07:33:31;;;;;;;8.00;7.20;;;;;16.80;99427.00;;;;16568528;28;20234;-49
2022/10/05 07:41:40;;;;;;;5.93;5.47;;;;;16.90;99425.00;;;;16562627;28;20200;-48
2022/10/05 07:49:50;;;;;;;7.37;6.00;;;;;17.20;99433.00;;;;16558109;28;20231;-49
2022/10/05 07:58:00;;;;;;;6.00;5.50;;;;;17.60;99436.00;;;;16555737;28;20235;-48
2022/10/05 08:06:05;;;;;;;11.23;5.90;;;;;17.80;99431.00;;;;16571310;28;20222;-48
2022/10/05 08:14:15;;;;;;;6.13;5.57;;;;;17.70;99434.00;;;;16565130;28;20226;-48
2022/10/05 08:22:25;;;;;;;7.90;7.20;;;;;17.70;99431.00;;;;16554975;28;20223;-47
2022/10/05 08:30:29;;;;;;;8.03;7.17;;;;;17.70;99421.00;;;;16556989;28;20234;-49
2022/10/05 08:38:34;;;;;;;7.80;6.60;;;;;18.00;99416.00;;;;16573920;28;20309;-48
2022/10/05 08:47:04;;;;;;;9.90;7.43;;;;;18.10;99420.00;;;;16573551;28;20223;-49
2022/10/05 08:55:31;;;;;;;10.90;8.77;;;;;18.40;99402.00;;;;16568810;28;20236;-48
2022/10/05 09:03:57;;;;;;;8.13;6.90;;;;;18.60;99400.00;;;;16572270;28;20237;-48
2022/10/05 09:12:22;;;;;;;7.30;6.67;;;;;19.10;99392.00;;;;16560962;28;20242;-48
2022/10/05 09:20:31;;;;;;;7.77;7.07;;;;;19.40;99396.00;;;;16566807;28;20593;-48
2022/10/05 09:28:43;;;;;;;8.20;7.27;;;;;20.10;99381.00;;;;16564823;28;20309;-49
2022/10/05 09:37:24;;;;;;;6.97;6.37;;;;;20.20;99366.00;;;;16552543;28;20634;-49
2022/10/05 09:45:47;;;;;;;10.13;6.33;;;;;20.60;99363.00;;;;16442671;28;20752;-48
2022/10/05 09:54:17;;;;;;;7.47;6.10;;;;;20.90;99359.00;;;;16440613;28;20312;-48
2022/10/05 10:02:30;;;;;;;9.93;6.60;;;;;20.70;99341.00;;;;16438834;28;20205;-48
2022/10/05 10:10:54;;;;;;;7.50;6.90;;;;;20.80;99329.00;;;;16453575;28;20239;-48
2022/10/05 10:19:16;;;;;;;12.73;5.87;;;;;21.30;99317.00;;;;16573230;28;20241;-48
2022/10/05 10:27:33;;;;;;;6.00;5.40;;;;;21.50;99318.00;;;;16568411;28;20238;-49
2022/10/05 10:35:39;;;;;;;5.50;4.97;;;;;21.80;99305.00;;;;16566091;28;20227;-48
2022/10/05 10:44:04;;;;;;;6.47;4.87;;;;;22.00;99292.00;;;;16563241;28;20231;-49
2022/10/05 10:52:17;;;;;;;4.53;4.23;;;;;22.80;99283.00;;;;16541884;28;20223;-48
2022/10/05 11:00:26;;;;;;;8.67;5.07;;;;;23.10;99278.00;;;;16539621;28;20279;-49
2022/10/05 11:09:01;;;;;;;4.73;4.30;;;;;23.60;99266.00;;;;16563609;28;20231;-48
2022/10/05 11:17:28;;;;;;;5.03;3.60;;;;;24.30;99253.00;;;;16561402;28;20214;-48
2022/10/05 11:25:50;;;;;;;4.20;3.90;;;;;24.60;99247.00;;;;16569422;28;20223;-49
2022/10/05 11:34:23;;;;;;;4.03;3.63;;;;;24.40;99230.00;;;;16540176;28;20216;-48
2022/10/05 11:43:02;;;;;;;7.37;3.90;;;;;25.60;99220.00;;;;16543152;28;20750;-49
2022/10/05 11:51:34;;;;;;;3.40;3.10;;;;;24.90;99213.00;;;;16537929;28;20234;-48
2022/10/05 11:59:42;;;;;;;2.23;1.73;;;;;27.20;99200.00;;;;16530615;28;20224;-48
2022/10/05 12:07:56;;;;;;;2.40;2.20;;;;;27.60;99196.00;;;;16540431;28;20817;-48
2022/10/05 12:16:05;;;;;;;2.40;1.90;;;;;28.00;99200.00;;;;16549098;28;20269;-48
2022/10/05 12:24:14;;;;;;;3.33;2.40;;;;;28.40;99192.00;;;;16572728;28;20231;-49
2022/10/05 12:32:20;;;;;;;2.40;2.20;;;;;27.90;99177.00;;;;16562779;28;20235;-48
2022/10/05 12:40:27;;;;;;;2.50;1.90;;;;;28.40;99174.00;;;;16580911;28;20255;-48
2022/10/05 12:48:59;;;;;;;2.10;2.00;;;;;28.50;99169.00;;;;16579108;28;20223;-48
2022/10/05 12:57:08;;;;;;;4.53;2.10;;;;;29.20;99172.00;;;;16555815;28;20228;-49
2022/10/05 13:05:23;;;;;;;2.60;1.77;;;;;30.20;99157.00;;;;16576971;28;20219;-49
2022/10/05 13:13:48;;;;;;;1.13;1.03;;;;;28.70;99160.00;;;;16578518;28;20718;-48
2022/10/05 13:22:03;;;;;;;1.40;1.17;;;;;29.20;99155.00;;;;16550187;28;20188;-48
2022/10/05 13:30:12;;;;;;;2.03;1.17;;;;;28.70;99157.00;;;;16583538;28;20223;-49
2022/10/05 13:38:25;;;;;;;1.07;1.00;;;;;29.10;99157.00;;;;16641326;22;20242;-47
2022/10/05 13:46:36;;;;;;;3.30;1.20;;;;;29.10;99165.00;;;;16619676;28;20227;-48
2022/10/05 13:54:45;;;;;;;1.10;1.00;;;;;29.90;99157.00;;;;16626757;28;20850;-48
2022/10/05 14:02:50;;;;;;;2.17;1.00;;;;;29.70;99156.00;;;;16630528;28;20628;-47
2022/10/05 14:10:55;;;;;;;1.57;1.20;;;;;28.90;99156.00;;;;16630206;28;20231;-47
2022/10/05 14:18:59;;;;;;;1.43;1.10;;;;;28.20;99152.00;;;;16647875;28;20226;-47
2022/10/05 14:27:19;;;;;;;3.27;1.10;;;;;27.70;99151.00;;;;16648029;28;20223;-47
2022/10/05 14:35:24;;;;;;;6.87;1.57;;;;;28.90;99155.00;;;;16635896;28;20218;-49
2022/10/05 14:43:28;;;;;;;9.27;1.40;;;;;29.70;99149.00;;;;16640501;28;20732;-49
2022/10/05 14:51:35;;;;;;;1.97;1.47;;;;;29.90;99148.00;;;;16628586;28;20695;-49
2022/10/05 14:59:55;;;;;;;2.03;1.20;;;;;29.70;99144.00;;;;16618312;28;20210;-49
2022/10/05 15:08:07;;;;;;;2.10;1.60;;;;;31.30;99143.00;;;;16619118;28;20235;-49
2022/10/05 15:16:18;;;;;;;2.40;1.10;;;;;31.70;99141.00;;;;16622595;28;20225;-49
2022/10/05 15:24:23;;;;;;;1.10;0.90;;;;;31.30;99148.00;;;;16615513;28;20230;-49
2022/10/05 15:32:40;;;;;;;1.77;1.20;;;;;31.60;99143.00;;;;16626296;28;20228;-48
2022/10/05 15:40:45;;;;;;;3.40;1.30;;;;;31.20;99147.00;;;;16632657;28;20222;-49
2022/10/05 15:48:57;;;;;;;5.73;1.50;;;;;32.00;99156.00;;;;16638943;28;20245;-48
2022/10/05 15:57:06;;;;;;;4.93;1.80;;;;;31.10;99167.00;;;;16641932;28;20217;-48
2022/10/05 16:13:49;;;;;;;3.10;2.47;;;;;27.40;99194.00;;;;16655854;28;20264;-48
2022/10/05 16:21:58;;;;;;;5.23;1.70;;;;;27.20;99204.00;;;;16640871;28;20210;-48
2022/10/05 16:30:04;;;;;;;2.67;1.63;;;;;24.00;99211.00;;;;16648604;28;20305;-47
2022/10/05 16:38:16;;;;;;;4.33;2.40;;;;;22.50;99232.00;;;;16645492;28;20332;-48
2022/10/05 16:46:24;;;;;;;8.73;2.57;;;;;21.60;99243.00;;;;16645774;28;20726;-48
2022/10/05 16:54:31;;;;;;;9.60;3.30;;;;;21.30;99255.00;;;;16629525;28;20737;-48
2022/10/05 17:02:44;;;;;;;7.03;3.03;;;;;20.90;99270.00;;;;16619617;28;20217;-48
2022/10/05 17:10:58;;;;;;;6.17;3.60;;;;;20.30;99274.00;;;;16635825;28;20229;-47
2022/10/05 17:19:24;;;;;;;4.90;3.10;;;;;19.90;99272.00;;;;16611076;28;20477;-47
2022/10/05 17:27:34;;;;;;;7.20;4.87;;;;;19.30;99294.00;;;;16604339;28;20217;-47
2022/10/05 17:36:08;;;;;;;11.20;7.47;;;;;19.10;99309.00;;;;16599428;28;20240;-47
2022/10/05 17:44:33;;;;;;;9.53;4.97;;;;;18.80;99308.00;;;;16602166;28;20301;-48
2022/10/05 18:01:17;;;;;;;8.70;4.77;;;;;17.30;99309.00;;;;16636972;28;20219;-48
2022/10/05 18:09:31;;;;;;;4.33;3.63;;;;;17.30;99314.00;;;;16639572;28;20222;-49
2022/10/05 18:17:44;;;;;;;6.50;3.20;;;;;17.20;99322.00;;;;16645919;28;20801;-49
2022/10/05 18:25:51;;;;;;;7.10;3.43;;;;;17.30;99331.00;;;;16638986;28;20719;-48
2022/10/05 18:34:22;;;;;;;4.13;3.00;;;;;18.10;99345.00;;;;16638132;28;20237;-49
2022/10/05 18:42:29;;;;;;;4.63;3.13;;;;;19.10;99348.00;;;;16623324;28;20211;-49
2022/10/05 18:50:40;;;;;;;7.60;3.90;;;;;18.50;99347.00;;;;16644033;28;20230;-49
2022/10/05 18:58:48;;;;;;;5.30;4.23;;;;;18.30;99347.00;;;;16622831;28;20223;-48
2022/10/05 19:06:59;;;;;;;3.27;2.80;;;;;19.00;99354.00;;;;16628097;28;20585;-49
2022/10/05 19:15:06;;;;;;;4.87;2.50;;;;;20.10;99364.00;;;;16609409;28;20249;-49
2022/10/05 19:23:23;;;;;;;6.50;3.30;;;;;19.10;99376.00;;;;16612759;28;20758;-49
2022/10/05 19:31:30;;;;;;;3.40;3.10;;;;;18.30;99388.00;;;;16602304;28;20226;-48
2022/10/05 19:39:39;;;;;;;3.87;2.37;;;;;17.90;99404.00;;;;16602561;28;20235;-48
2022/10/05 19:47:52;;;;;;;3.00;2.40;;;;;18.10;99432.00;;;;16597274;28;20241;-50
2022/10/05 19:55:56;;;;;;;3.70;2.77;;;;;17.30;99452.00;;;;16597300;28;20223;-49
2022/10/05 20:03:58;;;;;;;7.50;3.10;;;;;16.90;99476.00;;;;16599805;28;20567;-49
2022/10/05 20:12:03;;;;;;;4.33;3.80;;;;;16.70;99492.00;;;;16598810;28;20296;-49
2022/10/05 20:20:24;;;;;;;5.10;3.20;;;;;16.00;99507.00;;;;16606632;28;20298;-49
2022/10/05 20:28:34;;;;;;;9.13;5.67;;;;;16.40;99513.00;;;;16600465;28;20743;-48
2022/10/05 20:36:38;;;;;;;14.40;8.70;;;;;16.40;99526.00;;;;16600930;28;20334;-49
2022/10/05 20:44:42;;;;;;;6.07;4.00;;;;;16.00;99540.00;;;;16601046;28;20584;-49
2022/10/05 20:52:44;;;;;;;7.17;4.23;;;;;15.90;99541.00;;;;16608583;28;20306;-48
2022/10/05 21:09:10;;;;;;;7.23;4.30;;;;;16.20;99569.00;;;;16631158;28;20320;-49
2022/10/05 21:17:14;;;;;;;7.43;5.10;;;;;16.20;99583.00;;;;16675192;22;20237;-77
2022/10/05 21:25:17;;;;;;;7.27;6.57;;;;;16.10;99594.00;;;;16609762;28;20239;-76
2022/10/05 21:33:21;;;;;;;7.73;3.60;;;;;16.30;99601.00;;;;16578850;28;20230;-76
2022/10/05 21:41:23;;;;;;;7.43;6.47;;;;;15.80;99605.00;;;;16581422;28;20219;-77
2022/10/05 21:58:51;;;;;;;8.63;7.83;;;;;15.60;99631.00;;;;16581089;28;20677;-76
2022/10/05 22:06:54;;;;;;;4.70;4.30;;;;;15.50;99632.00;;;;16577440;28;20226;-76
2022/10/05 22:14:58;;;;;;;8.97;6.83;;;;;15.40;99642.00;;;;16584796;28;20238;-76
2022/10/05 22:23:00;;;;;;;8.03;6.57;;;;;15.70;99640.00;;;;16588859;28;20241;-76
2022/10/05 22:31:05;;;;;;;10.23;9.20;;;;;15.50;99640.00;;;;16565508;28;20319;-77
2022/10/05 22:39:08;;;;;;;5.57;4.47;;;;;15.40;99646.00;;;;16591326;28;20318;-76
2022/10/05 22:47:12;;;;;;;7.50;5.20;;;;;15.60;99653.00;;;;16568236;28;20708;-76
2022/10/05 22:55:14;;;;;;;5.83;5.23;;;;;14.80;99655.00;;;;16677496;22;20251;-49
2022/10/05 23:03:18;;;;;;;7.07;4.60;;;;;15.00;99667.00;;;;16644276;28;20213;-49
2022/10/05 23:11:22;;;;;;;5.30;3.57;;;;;14.50;99677.00;;;;16657172;28;20226;-49
2022/10/05 23:19:26;;;;;;;4.70;4.23;;;;;14.40;99672.00;;;;16647932;28;20700;-49
2022/10/05 23:27:28;;;;;;;5.03;3.90;;;;;14.70;99679.00;;;;16641379;28;20214;-49
2022/10/05 23:35:32;;;;;;;5.27;4.07;;;;;14.50;99675.00;;;;16644358;28;20254;-49
2022/10/05 23:43:35;;;;;;;7.27;4.40;;;;;14.40;99683.00;;;;16646236;28;20229;-49
2022/10/05 23:51:39;;;;;;;8.70;4.87;;;;;14.40;99694.00;;;;16640483;28;20245;-49
2022/10/05 23:59:41;;;;;;;8.10;4.43;;;;;14.40;99699.00;;;;16642087;28;20325;-49
